Time;durP1;ratioP1;P1;durP2;ratioP2;P2;SDS_P1;SDS_P2;PMS_P1;PMS_P2;Temp;Humidity;BMP_temperature;BMP_pressure;BME280_temperature;BME280_humidity;BME280_pressure;Samples;Min_cycle;Max_cycle;Signal;HPM_P1;HPM_P2
2024/02/22 00:00:18;;;;;;;29.40;14.57;;;;;;;4.44;71.50;100965.03;123410;1099;104369;-78
2024/02/22 00:03:10;;;;;;;28.03;14.10;;;;;;;4.42;72.36;100958.81;123665;1099;104661;-80
2024/02/22 00:05:41;;;;;;;26.83;13.77;;;;;;;4.39;72.05;100956.00;123420;1099;104245;-80
2024/02/22 00:08:12;;;;;;;28.40;13.97;;;;;;;4.38;72.49;100951.63;123629;1099;104265;-78
2024/02/22 00:10:45;;;;;;;28.23;14.07;;;;;;;4.38;72.37;100953.30;123567;1099;104249;-78
2024/02/22 00:13:17;;;;;;;29.50;14.90;;;;;;;4.35;72.39;100947.90;123608;1099;104348;-78
2024/02/22 00:15:48;;;;;;;26.20;13.30;;;;;;;4.32;72.66;100944.30;123569;1099;104299;-78
2024/02/22 00:18:20;;;;;;;29.17;14.90;;;;;;;4.30;72.16;100944.98;123221;1099;104350;-79
2024/02/22 00:20:52;;;;;;;31.77;14.37;;;;;;;4.27;72.69;100943.11;123595;1099;104351;-79
2024/02/22 00:23:23;;;;;;;26.33;13.27;;;;;;;4.24;72.28;100940.30;123658;1099;104348;-79
2024/02/22 00:25:54;;;;;;;25.97;13.37;;;;;;;4.25;71.98;100947.27;123577;1099;104268;-79
2024/02/22 00:28:25;;;;;;;29.60;14.30;;;;;;;4.25;73.06;100942.08;123558;1099;104348;-79
2024/02/22 00:30:56;;;;;;;27.57;13.67;;;;;;;4.23;72.75;100941.08;123679;1099;104389;-80
2024/02/22 00:33:27;;;;;;;29.87;13.87;;;;;;;4.22;72.79;100940.98;123658;1099;104248;-79
2024/02/22 00:35:59;;;;;;;27.05;13.60;;;;;;;4.20;72.47;100932.19;123564;1099;104317;-79
2024/02/22 00:38:31;;;;;;;28.97;13.87;;;;;;;4.19;72.77;100933.90;123600;1099;104357;-80
2024/02/22 00:41:02;;;;;;;29.25;14.75;;;;;;;4.18;72.34;100932.09;123663;1098;104783;-79
2024/02/22 00:43:33;;;;;;;28.10;14.77;;;;;;;4.18;72.59;100932.09;123319;1099;104321;-78
2024/02/22 00:46:05;;;;;;;31.23;14.70;;;;;;;4.17;72.83;100935.47;123658;1099;104290;-79
2024/02/22 00:48:37;;;;;;;30.00;14.13;;;;;;;4.17;72.94;100937.17;123669;1098;104373;-79
2024/02/22 00:51:09;;;;;;;28.37;14.43;;;;;;;4.16;73.12;100943.16;123666;1098;104335;-79
2024/02/22 00:53:40;;;;;;;27.40;14.20;;;;;;;4.16;72.96;100944.08;123655;1099;104299;-79
2024/02/22 00:56:11;;;;;;;27.00;13.83;;;;;;;4.17;73.03;100943.26;123460;1099;104271;-79
2024/02/22 00:58:43;;;;;;;26.87;13.13;;;;;;;4.16;73.33;100933.69;123499;1099;104347;-79
2024/02/22 01:01:16;;;;;;;27.97;14.53;;;;;;;4.14;72.62;100936.18;123548;1099;104347;-79
2024/02/22 01:03:48;;;;;;;29.50;14.77;;;;;;;4.11;72.68;100930.78;123554;1099;104347;-79
2024/02/22 01:06:19;;;;;;;28.00;14.37;;;;;;;4.11;73.03;100932.45;123693;1099;104286;-80
2024/02/22 01:08:50;;;;;;;29.90;14.47;;;;;;;4.08;73.27;100927.05;123626;1099;104361;-79
2024/02/22 01:11:21;;;;;;;30.87;14.83;;;;;;;4.07;73.43;100926.16;123344;1099;104689;-78
2024/02/22 01:13:53;;;;;;;31.30;15.60;;;;;;;4.08;72.84;100924.45;123579;1098;104269;-78
2024/02/22 01:16:24;;;;;;;31.57;15.20;;;;;;;4.06;73.15;100919.15;123842;1098;104322;-80
2024/02/22 01:18:55;;;;;;;29.83;14.67;;;;;;;4.04;73.12;100922.46;123604;1099;104245;-79
2024/02/22 01:21:26;;;;;;;29.80;15.20;;;;;;;4.01;72.76;100914.45;123705;1099;104638;-79
2024/02/22 01:23:58;;;;;;;35.93;16.30;;;;;;;3.99;73.98;100923.81;123594;1099;104344;-79
2024/02/22 01:26:29;;;;;;;30.03;15.37;;;;;;;3.95;73.39;100927.91;123653;1099;104374;-79
2024/02/22 01:29:00;;;;;;;32.63;16.17;;;;;;;3.93;73.10;100925.20;123694;1099;104395;-79
2024/02/22 01:31:31;;;;;;;31.93;16.80;;;;;;;3.91;72.90;100923.28;123820;1099;104245;-79
2024/02/22 01:34:02;;;;;;;30.27;15.43;;;;;;;3.89;73.21;100925.77;123646;1099;104415;-79
2024/02/22 01:36:33;;;;;;;31.73;16.10;;;;;;;3.87;73.39;100922.18;123666;1099;104280;-79
2024/02/22 01:39:06;;;;;;;29.93;16.10;;;;;;;3.88;73.79;100917.88;123720;1099;104414;-78
2024/02/22 01:41:37;;;;;;;31.17;16.37;;;;;;;3.87;73.42;100913.50;123668;1099;104453;-79
2024/02/22 01:44:08;;;;;;;30.20;15.90;;;;;;;3.83;73.36;100904.58;123608;1099;104248;-78
2024/02/22 01:46:40;;;;;;;33.57;17.67;;;;;;;3.80;73.45;100904.37;123604;1099;104252;-79
2024/02/22 01:49:12;;;;;;;33.27;17.10;;;;;;;3.80;73.96;100900.88;123565;1099;104345;-79
2024/02/22 01:51:45;;;;;;;33.73;16.63;;;;;;;3.75;73.51;100892.77;123689;1098;104337;-78
2024/02/22 01:54:17;;;;;;;34.18;17.12;;;;;;;3.73;73.71;100899.56;123557;1099;104242;-78
2024/02/22 01:56:48;;;;;;;35.03;17.10;;;;;;;3.73;73.66;100889.19;123650;1099;104389;-79
2024/02/22 01:59:20;;;;;;;37.43;18.00;;;;;;;3.73;73.21;100884.88;123540;1099;104319;-79
2024/02/22 02:01:52;;;;;;;34.50;17.53;;;;;;;3.72;74.01;100885.66;123722;1098;104682;-79
2024/02/22 02:04:24;;;;;;;33.17;17.90;;;;;;;3.70;74.22;100884.67;123495;1099;104287;-80
2024/02/22 02:06:55;;;;;;;33.17;17.17;;;;;;;3.69;74.27;100879.38;123656;1099;104411;-79
2024/02/22 02:09:27;;;;;;;35.43;18.37;;;;;;;3.71;73.87;100872.58;123605;1098;104274;-79
2024/02/22 02:11:58;;;;;;;37.50;18.45;;;;;;;3.77;74.37;100873.00;123615;1099;104258;-79
2024/02/22 02:14:29;;;;;;;35.63;18.17;;;;;;;3.81;74.75;100869.84;123590;1099;104293;-79
2024/02/22 02:17:00;;;;;;;35.87;18.17;;;;;;;3.85;75.42;100866.67;123569;1098;104315;-79
2024/02/22 02:19:33;;;;;;;36.55;18.60;;;;;;;3.90;74.33;100869.58;123305;1099;104262;-79
2024/02/22 02:22:12;;;;;;;37.23;18.07;;;;;;;3.93;73.92;100872.38;123557;1099;104348;-79
2024/02/22 02:24:54;;;;;;;35.83;17.90;;;;;;;3.95;74.48;100868.19;123602;1099;104361;-80
2024/02/22 02:27:25;;;;;;;35.90;18.67;;;;;;;3.98;74.97;100860.61;123336;1099;104408;-79
2024/02/22 02:29:57;;;;;;;38.27;18.67;;;;;;;4.01;74.51;100863.41;123637;1099;118923;-78
2024/02/22 02:32:28;;;;;;;39.63;19.50;;;;;;;4.04;74.92;100854.94;123697;1099;104708;-78
2024/02/22 02:35:00;;;;;;;40.17;20.53;;;;;;;4.04;75.47;100866.22;123635;1099;104386;-78
2024/02/22 02:37:31;;;;;;;39.97;20.57;;;;;;;4.06;75.24;100866.32;123257;1099;104392;-78
2024/02/22 02:40:02;;;;;;;38.30;19.83;;;;;;;4.06;74.92;100871.52;123571;1099;104242;-77
2024/02/22 02:42:33;;;;;;;41.60;21.33;;;;;;;4.03;75.89;100868.70;123407;1099;104480;-78
2024/02/22 02:45:05;;;;;;;39.93;20.50;;;;;;;4.02;75.97;100864.30;123377;1099;104366;-79
2024/02/22 02:47:36;;;;;;;42.90;20.97;;;;;;;4.01;75.56;100862.52;123259;1099;104404;-79
2024/02/22 02:50:11;;;;;;;43.20;19.70;;;;;;;4.00;75.56;100855.52;123721;1098;104238;-79
2024/02/22 02:52:43;;;;;;;41.90;21.13;;;;;;;3.97;75.77;100851.00;123382;1099;104370;-79
2024/02/22 02:55:14;;;;;;;44.30;21.70;;;;;;;3.92;76.35;100853.28;123553;1099;104390;-80
2024/02/22 02:57:45;;;;;;;44.53;20.47;;;;;;;3.90;75.67;100854.89;123737;1099;104271;-79
2024/02/22 03:00:17;;;;;;;38.50;20.93;;;;;;;3.88;76.06;100856.49;123902;1099;104258;-79
2024/02/22 03:02:48;;;;;;;40.50;20.33;;;;;;;3.86;76.43;100852.87;123328;1099;104358;-79
2024/02/22 03:05:20;;;;;;;46.33;21.83;;;;;;;3.87;76.24;100854.68;123627;1099;104294;-80
2024/02/22 03:07:53;;;;;;;42.17;21.90;;;;;;;3.87;76.23;100849.48;123674;1099;104399;-79
2024/02/22 03:10:24;;;;;;;46.30;22.10;;;;;;;3.85;76.37;100853.69;123602;1099;104377;-79
2024/02/22 03:12:56;;;;;;;44.20;21.57;;;;;;;3.87;76.35;100857.28;123727;1099;104239;-79
2024/02/22 03:15:27;;;;;;;42.63;21.53;;;;;;;3.87;76.01;100865.06;123533;1099;104370;-78
2024/02/22 03:17:58;;;;;;;42.67;22.23;;;;;;;3.89;76.51;100868.66;123582;1098;104252;-79
2024/02/22 03:20:30;;;;;;;41.50;21.60;;;;;;;3.91;76.34;100861.89;123589;1099;104280;-79
2024/02/22 03:23:02;;;;;;;48.37;22.50;;;;;;;3.91;76.41;100867.09;123314;1099;104453;-79
2024/02/22 03:25:33;;;;;;;42.07;21.97;;;;;;;3.90;76.23;100870.47;123796;1099;104348;-79
2024/02/22 03:28:06;;;;;;;42.25;21.90;;;;;;;3.93;76.41;100874.98;123606;1099;104383;-79
2024/02/22 03:30:37;;;;;;;46.67;22.83;;;;;;;3.95;75.89;100878.57;123663;1099;104380;-79
2024/02/22 03:33:09;;;;;;;41.80;21.90;;;;;;;3.93;76.40;100877.58;123645;1099;104507;-80
2024/02/22 03:35:40;;;;;;;40.73;20.60;;;;;;;3.90;76.40;100865.28;123687;1099;104331;-79
2024/02/22 03:38:12;;;;;;;39.07;20.13;;;;;;;3.86;77.14;100876.23;123700;1099;104258;-79
2024/02/22 03:40:43;;;;;;;40.67;20.23;;;;;;;3.80;76.32;100878.41;123815;1099;104363;-80
2024/02/22 03:43:15;;;;;;;39.43;19.93;;;;;;;3.75;76.96;100875.50;123716;1099;104268;-80
2024/02/22 03:45:46;;;;;;;43.90;21.10;;;;;;;3.70;76.60;100875.99;123719;1099;104310;-80
2024/02/22 03:48:17;;;;;;;38.60;20.47;;;;;;;3.66;76.48;100876.56;123665;1099;104344;-80
2024/02/22 03:50:49;;;;;;;38.60;20.00;;;;;;;3.61;76.45;100876.24;123699;1098;104252;-79
2024/02/22 03:53:20;;;;;;;42.55;20.35;;;;;;;3.58;76.77;100884.73;123574;1098;104347;-79
2024/02/22 03:55:52;;;;;;;39.00;19.73;;;;;;;3.56;76.85;100883.70;123708;1099;104274;-80
2024/02/22 03:58:24;;;;;;;40.33;20.47;;;;;;;3.51;76.27;100882.50;123784;1099;104254;-80
2024/02/22 04:00:55;;;;;;;46.10;21.10;;;;;;;3.48;76.36;100879.69;123623;1099;104658;-79
2024/02/22 04:03:28;;;;;;;41.10;19.57;;;;;;;3.43;76.41;100881.06;123649;1099;104275;-79
2024/02/22 04:06:00;;;;;;;51.10;20.60;;;;;;;3.40;76.69;100880.85;123873;1099;104271;-79
2024/02/22 04:08:31;;;;;;;45.90;20.73;;;;;;;3.37;76.62;100872.85;123652;1099;104355;-79
2024/02/22 04:11:03;;;;;;;41.03;20.47;;;;;;;3.33;76.87;100878.61;123761;1099;104239;-79
2024/02/22 04:13:34;;;;;;;42.23;20.47;;;;;;;3.31;76.59;100878.50;123491;1099;104347;-80
2024/02/22 04:16:06;;;;;;;43.03;20.37;;;;;;;3.29;76.83;100882.69;123721;1099;104326;-80
2024/02/22 04:18:37;;;;;;;43.30;21.10;;;;;;;3.25;76.78;100875.47;123784;1099;104319;-80
2024/02/22 04:21:08;;;;;;;44.40;20.20;;;;;;;3.23;77.44;100875.36;123807;1099;104389;-79
2024/02/22 04:23:41;;;;;;;43.30;21.07;;;;;;;3.21;77.15;100876.95;123648;1099;104171;-80
2024/02/22 04:26:12;;;;;;;43.53;20.87;;;;;;;3.19;77.12;100878.52;123725;1098;104280;-80
2024/02/22 04:28:43;;;;;;;40.45;20.90;;;;;;;3.17;77.83;100877.52;123791;1099;104683;-80
2024/02/22 04:31:15;;;;;;;45.93;21.00;;;;;;;3.17;77.79;100876.63;123841;1099;104354;-79
2024/02/22 04:33:46;;;;;;;40.17;20.43;;;;;;;3.16;77.89;100877.41;123716;1099;104369;-79
2024/02/22 04:36:18;;;;;;;41.10;19.80;;;;;;;3.14;77.50;100879.89;123330;1099;104334;-79
2024/02/22 04:38:49;;;;;;;43.85;21.70;;;;;;;3.12;77.63;100873.70;123705;1098;104307;-79
2024/02/22 04:41:23;;;;;;;42.57;21.63;;;;;;;3.10;78.15;100875.30;123651;1099;104631;-78
2024/02/22 04:43:54;;;;;;;43.53;21.83;;;;;;;3.09;77.48;100872.59;123611;1099;104383;-79
2024/02/22 04:46:26;;;;;;;45.27;22.07;;;;;;;3.08;78.21;100870.78;123651;1099;104626;-79
2024/02/22 04:48:59;;;;;;;41.97;21.90;;;;;;;3.09;77.97;100867.41;123720;1099;104363;-80
2024/02/22 04:51:30;;;;;;;42.03;21.13;;;;;;;3.06;78.02;100865.48;123435;1099;104416;-79
2024/02/22 04:54:02;;;;;;;41.27;20.90;;;;;;;3.05;77.83;100866.27;123667;1099;104271;-79
2024/02/22 04:56:33;;;;;;;45.73;21.93;;;;;;;3.04;78.37;100877.45;123747;1098;104778;-80
2024/02/22 04:59:04;;;;;;;39.90;20.80;;;;;;;3.03;78.85;100878.23;123741;1099;104271;-79
2024/02/22 05:01:37;;;;;;;45.93;23.13;;;;;;;3.04;77.95;100885.22;123585;1099;104417;-79
2024/02/22 05:04:11;;;;;;;47.13;22.40;;;;;;;3.04;78.65;100878.34;123690;1099;104325;-80
2024/02/22 05:06:42;;;;;;;45.13;21.97;;;;;;;3.05;78.40;100885.34;123658;1099;104304;-79
2024/02/22 05:09:15;;;;;;;47.43;22.93;;;;;;;3.03;78.03;100880.82;123662;1098;104271;-79
2024/02/22 05:11:49;;;;;;;43.13;21.80;;;;;;;3.02;78.38;100885.12;123815;1098;104284;-79
2024/02/22 05:14:20;;;;;;;46.97;22.40;;;;;;;3.04;78.15;100885.22;123815;1099;104216;-79
2024/02/22 05:16:51;;;;;;;44.23;22.47;;;;;;;3.06;78.56;100881.04;124008;1098;104274;-79
2024/02/22 05:19:23;;;;;;;47.07;22.33;;;;;;;3.05;78.87;100887.93;124002;1099;104268;-79
2024/02/22 05:21:54;;;;;;;45.90;22.60;;;;;;;3.08;78.49;100892.41;123860;1099;104313;-79
2024/02/22 05:24:27;;;;;;;48.47;23.23;;;;;;;3.08;78.95;100886.34;124031;1099;104339;-79
2024/02/22 05:26:59;;;;;;;45.03;21.90;;;;;;;3.09;78.98;100876.08;123497;1099;104360;-79
2024/02/22 05:29:30;;;;;;;47.37;23.30;;;;;;;3.12;78.43;100883.19;123960;1099;104368;-79
2024/02/22 05:32:01;;;;;;;48.77;23.13;;;;;;;3.13;79.17;100885.89;123750;1098;104683;-79
2024/02/22 05:34:32;;;;;;;46.73;24.07;;;;;;;3.16;78.98;100891.26;123499;1099;104293;-79
2024/02/22 05:37:08;;;;;;;47.20;23.90;;;;;;;3.19;78.12;100886.30;123434;1098;104267;-79
2024/02/22 05:39:39;;;;;;;50.40;24.07;;;;;;;3.24;78.84;100884.03;123610;1099;104332;-79
2024/02/22 05:42:10;;;;;;;43.17;22.23;;;;;;;3.28;79.11;100887.77;123537;1099;104373;-79
2024/02/22 05:44:41;;;;;;;47.27;22.90;;;;;;;3.31;78.61;100891.47;123755;1099;104275;-79
2024/02/22 05:47:13;;;;;;;46.23;23.23;;;;;;;3.38;79.22;100891.12;124028;1099;104320;-80
2024/02/22 05:49:44;;;;;;;49.70;23.30;;;;;;;3.46;79.20;100886.47;124342;1099;104252;-79
2024/02/22 05:52:15;;;;;;;45.87;22.10;;;;;;;3.49;79.48;100881.50;124013;1099;104255;-78
2024/02/22 05:54:47;;;;;;;49.33;22.63;;;;;;;3.55;78.86;100886.20;123990;1099;104290;-77
2024/02/22 05:57:18;;;;;;;47.20;24.00;;;;;;;3.62;78.61;100892.73;123945;1099;104307;-78
2024/02/22 05:59:49;;;;;;;49.80;22.60;;;;;;;3.67;78.89;100883.56;124516;1099;104342;-78
2024/02/22 06:02:21;;;;;;;46.60;24.63;;;;;;;3.69;79.33;100880.27;124072;1099;104232;-78
2024/02/22 06:04:52;;;;;;;47.10;24.27;;;;;;;3.73;78.62;100884.88;124388;1099;104360;-78
2024/02/22 06:07:25;;;;;;;47.70;24.73;;;;;;;3.75;78.92;100883.28;124322;1099;104226;-79
2024/02/22 06:09:58;;;;;;;45.17;23.90;;;;;;;3.80;79.26;100893.98;124415;1099;104272;-79
2024/02/22 06:12:30;;;;;;;48.30;23.87;;;;;;;3.85;79.51;100896.90;124370;1098;104156;-79
2024/02/22 06:15:03;;;;;;;49.83;24.10;;;;;;;3.89;79.49;100897.22;124663;1099;104322;-81
2024/02/22 06:17:34;;;;;;;49.53;24.43;;;;;;;3.95;79.56;100905.42;124719;1099;104357;-80
2024/02/22 06:20:08;;;;;;;50.50;25.93;;;;;;;4.05;80.04;100895.67;124445;1099;104297;-81
2024/02/22 06:22:39;;;;;;;49.70;24.98;;;;;;;4.11;79.45;100893.49;124957;1099;104335;-80
2024/02/22 06:25:12;;;;;;;49.20;25.33;;;;;;;4.23;79.05;100896.92;124318;1099;104274;-82
2024/02/22 06:27:45;;;;;;;48.30;25.72;;;;;;;4.33;79.10;100895.83;124801;1099;104271;-80
2024/02/22 06:30:18;;;;;;;53.93;26.90;;;;;;;4.44;79.79;100891.35;124955;1098;102183;-80
2024/02/22 06:32:49;;;;;;;47.47;24.97;;;;;;;4.54;79.72;100893.77;126651;1098;101878;-80
2024/02/22 06:35:21;;;;;;;51.40;25.83;;;;;;;4.63;79.26;100894.38;126894;1098;101825;-80
2024/02/22 06:37:53;;;;;;;45.37;24.17;;;;;;;4.74;79.78;100883.80;125015;1099;104195;-80
2024/02/22 06:40:24;;;;;;;47.90;25.07;;;;;;;4.83;79.29;100885.29;125179;1099;104647;-80
2024/02/22 06:42:55;;;;;;;47.70;24.90;;;;;;;4.91;79.35;100882.27;125153;1099;104399;-80
2024/02/22 06:45:27;;;;;;;46.57;25.20;;;;;;;5.00;79.59;100883.78;125105;1099;104204;-80
2024/02/22 06:47:59;;;;;;;52.73;25.37;;;;;;;5.08;79.79;100880.75;124960;1099;104246;-81
2024/02/22 06:50:30;;;;;;;52.50;25.20;;;;;;;5.16;79.14;100882.16;124767;1099;104303;-80
2024/02/22 06:53:02;;;;;;;51.13;26.10;;;;;;;5.24;79.37;100888.73;125031;1099;104252;-81
2024/02/22 06:55:37;;;;;;;48.40;26.07;;;;;;;5.31;79.57;100877.89;124755;1099;104113;-81
2024/02/22 06:58:10;;;;;;;47.13;24.37;;;;;;;5.38;79.38;100873.99;124685;1100;104686;-80
2024/02/22 07:00:42;;;;;;;52.10;25.20;;;;;;;5.49;80.03;100872.95;125028;1099;104181;-80
2024/02/22 07:03:14;;;;;;;51.30;24.80;;;;;;;5.58;79.55;100876.12;125143;1099;104277;-80
2024/02/22 07:05:48;;;;;;;47.77;24.93;;;;;;;5.67;79.55;100872.27;125175;1099;103337;-80
2024/02/22 07:08:21;;;;;;;50.07;26.57;;;;;;;5.79;79.94;100872.14;124869;1099;104281;-80
2024/02/22 07:10:52;;;;;;;48.10;25.50;;;;;;;5.92;79.73;100859.95;125356;1099;104214;-83
2024/02/22 07:13:24;;;;;;;50.93;26.83;;;;;;;5.98;79.57;100871.57;125154;1098;104348;-79
2024/02/22 07:15:58;;;;;;;51.57;26.50;;;;;;;6.04;79.32;100870.22;125214;1099;104230;-79
2024/02/22 07:18:29;;;;;;;50.03;25.33;;;;;;;6.10;79.46;100862.77;124910;1099;104229;-80
2024/02/22 07:21:03;;;;;;;53.30;27.40;;;;;;;6.20;79.75;100866.84;124989;1099;104440;-80
2024/02/22 07:23:36;;;;;;;50.87;25.83;;;;;;;6.31;79.67;100862.27;125294;1099;104204;-82
2024/02/22 07:26:10;;;;;;;50.43;26.80;;;;;;;6.37;79.88;100859.98;125397;1099;104359;-80
2024/02/22 07:28:45;;;;;;;53.10;26.73;;;;;;;6.48;79.90;100858.92;125238;1099;104438;-80
2024/02/22 07:31:16;;;;;;;49.40;26.70;;;;;;;6.63;79.92;100856.28;125367;1099;104281;-80
2024/02/22 07:33:47;;;;;;;50.37;26.70;;;;;;;6.77;79.95;100859.67;125420;1099;102718;-81
2024/02/22 07:36:19;;;;;;;47.07;25.23;;;;;;;6.88;79.92;100859.40;125252;1099;104168;-81
2024/02/22 07:38:51;;;;;;;49.60;26.47;;;;;;;6.93;80.19;100863.16;124710;1099;104707;-79
2024/02/22 07:41:22;;;;;;;51.27;26.80;;;;;;;7.01;80.12;100852.34;125263;1098;104270;-79
2024/02/22 07:43:56;;;;;;;48.17;25.47;;;;;;;7.08;80.12;100858.79;125147;1099;104254;-79
2024/02/22 07:46:27;;;;;;;46.02;24.35;;;;;;;7.11;80.03;100858.08;125457;1099;117826;-80
2024/02/22 07:49:01;;;;;;;49.37;27.20;;;;;;;7.14;80.13;100858.25;125154;1099;104316;-79
2024/02/22 07:51:32;;;;;;;47.65;24.02;;;;;;;7.24;79.87;100849.20;124670;1099;104488;-81
2024/02/22 07:54:04;;;;;;;49.43;26.00;;;;;;;7.30;79.85;100844.31;125121;1099;102825;-82
2024/02/22 07:56:38;;;;;;;47.87;24.83;;;;;;;7.40;80.29;100850.92;124937;1099;104232;-82
2024/02/22 07:59:13;;;;;;;47.23;25.67;;;;;;;7.51;80.00;100848.09;124704;1098;104434;-80
2024/02/22 08:01:45;;;;;;;46.55;25.40;;;;;;;7.61;80.05;100849.47;124999;1099;101946;-81
2024/02/22 08:04:17;;;;;;;45.53;25.90;;;;;;;7.69;80.12;100844.65;125024;1099;102087;-80
2024/02/22 08:06:49;;;;;;;44.90;25.37;;;;;;;7.77;79.90;100853.77;124521;1099;104194;-80
2024/02/22 08:09:24;;;;;;;47.47;26.07;;;;;;;7.85;79.83;100848.95;124474;1099;104178;-80
2024/02/22 08:11:56;;;;;;;49.37;26.17;;;;;;;7.94;79.78;100843.32;124504;1099;104297;-79
2024/02/22 08:14:38;;;;;;;48.47;26.40;;;;;;;8.01;79.84;100837.57;124700;1099;104265;-82
2024/02/22 08:17:17;;;;;;;47.70;25.07;;;;;;;8.13;80.28;100832.97;124945;1099;101916;-79
2024/02/22 08:19:50;;;;;;;48.97;24.67;;;;;;;8.23;80.20;100830.02;124793;1099;104305;-80
2024/02/22 08:22:29;;;;;;;;;;;;;;;8.33;78.84;100828.75;125270;1099;104137;-80
2024/02/22 08:25:00;;;;;;;47.13;24.87;;;;;;;8.49;79.80;100830.44;125411;1099;103961;-79
2024/02/22 08:27:35;;;;;;;49.10;26.13;;;;;;;8.64;79.71;100828.58;124557;1099;104255;-80
2024/02/22 08:30:10;;;;;;;48.00;25.10;;;;;;;8.76;79.44;100827.40;124916;1099;104226;-81
2024/02/22 08:32:42;;;;;;;46.03;23.67;;;;;;;8.88;79.99;100827.07;126471;1099;102415;-80
2024/02/22 08:35:13;;;;;;;44.57;22.60;;;;;;;8.99;79.05;100821.53;126037;1098;104248;-80
2024/02/22 08:37:44;;;;;;;47.00;25.30;;;;;;;9.11;78.91;100826.43;125317;1099;104169;-80
2024/02/22 08:40:15;;;;;;;52.63;24.80;;;;;;;9.23;79.69;100818.26;125385;1099;103413;-82
2024/02/22 08:42:47;;;;;;;43.53;23.07;;;;;;;9.35;79.19;100815.32;125044;1099;104162;-79
2024/02/22 08:45:19;;;;;;;45.63;23.67;;;;;;;9.47;79.54;100814.95;125177;1099;104280;-81
2024/02/22 08:47:50;;;;;;;49.15;25.20;;;;;;;9.56;78.85;100804.89;125140;1099;103547;-81
2024/02/22 08:50:22;;;;;;;45.10;23.00;;;;;;;9.68;79.60;100807.18;125810;1099;104207;-79
2024/02/22 08:52:53;;;;;;;42.27;22.70;;;;;;;9.77;78.63;100807.58;124526;1099;104332;-80
2024/02/22 08:55:25;;;;;;;39.13;22.33;;;;;;;9.88;78.34;100797.56;125161;1098;104191;-82
2024/02/22 08:57:57;;;;;;;39.23;21.77;;;;;;;9.99;78.71;100795.41;125162;1099;111286;-81
2024/02/22 09:00:28;;;;;;;37.90;20.35;;;;;;;10.11;77.71;100793.28;125136;1099;104316;-81
2024/02/22 09:03:01;;;;;;;37.03;19.13;;;;;;;10.17;75.87;100784.78;125162;1099;104175;-81
2024/02/22 09:05:33;;;;;;;37.50;19.73;;;;;;;10.25;77.16;100789.53;125097;1099;104342;-80
2024/02/22 09:08:05;;;;;;;37.23;18.37;;;;;;;10.30;76.20;100776.61;125081;1099;104268;-83
2024/02/22 09:10:36;;;;;;;34.37;18.07;;;;;;;10.39;76.68;100774.40;125827;1099;104258;-83
2024/02/22 09:13:09;;;;;;;37.23;19.77;;;;;;;10.47;76.11;100782.58;125800;1098;103116;-80
2024/02/22 09:15:41;;;;;;;34.33;17.77;;;;;;;10.53;74.55;100766.17;126074;1099;104131;-81
2024/02/22 09:18:12;;;;;;;36.77;19.40;;;;;;;10.56;75.77;100767.17;124834;1099;104299;-83
2024/02/22 09:20:44;;;;;;;35.03;18.57;;;;;;;10.60;75.31;100770.84;124692;1099;104175;-81
2024/02/22 09:23:16;;;;;;;33.57;17.90;;;;;;;10.63;74.93;100765.72;124637;1099;104264;-81
2024/02/22 09:25:47;;;;;;;37.83;18.17;;;;;;;10.68;74.41;100763.27;125107;1099;103547;-81
2024/02/22 09:28:18;;;;;;;33.50;18.00;;;;;;;10.72;73.01;100742.45;125262;1098;103724;-80
2024/02/22 09:30:52;;;;;;;33.55;16.85;;;;;;;10.79;73.91;100754.08;125091;1099;104379;-83
2024/02/22 09:33:24;;;;;;;31.20;16.77;;;;;;;10.84;72.67;100746.38;125306;1099;104073;-80
2024/02/22 09:35:56;;;;;;;31.97;16.63;;;;;;;10.88;72.39;100740.42;124708;1099;104293;-81
2024/02/22 09:38:27;;;;;;;33.43;17.20;;;;;;;10.91;72.80;100727.42;124912;1099;104300;-82
2024/02/22 09:40:59;;;;;;;30.53;15.87;;;;;;;11.00;73.58;100732.09;124637;1099;104163;-84
2024/02/22 09:43:32;;;;;;;27.57;13.93;;;;;;;11.12;72.80;100725.56;125123;1099;104360;-79
2024/02/22 09:46:03;;;;;;;30.13;15.17;;;;;;;11.17;71.81;100724.85;125365;1099;103501;-81
2024/02/22 09:48:34;;;;;;;30.77;16.60;;;;;;;11.19;71.51;100713.58;125075;1099;104382;-81
2024/02/22 09:51:06;;;;;;;31.87;15.97;;;;;;;11.22;72.03;100710.14;125233;1099;104277;-80
2024/02/22 09:53:39;;;;;;;32.37;15.70;;;;;;;11.27;72.26;100704.23;125539;1099;103022;-82
2024/02/22 09:56:10;;;;;;;32.50;16.07;;;;;;;11.33;71.71;100698.31;124708;1099;104210;-83
2024/02/22 09:58:46;;;;;;;30.93;16.10;;;;;;;11.36;71.77;100690.55;125356;1099;104175;-80
2024/02/22 10:01:19;;;;;;;29.83;15.63;;;;;;;11.43;71.30;100689.02;124779;1099;104178;-82
2024/02/22 10:03:52;;;;;;;30.93;15.87;;;;;;;11.45;70.81;100680.36;124873;1099;102684;-82
2024/02/22 10:06:26;;;;;;;33.67;16.87;;;;;;;11.50;70.89;100678.78;125220;1099;104269;-81
2024/02/22 10:09:03;;;;;;;28.10;14.00;;;;;;;11.58;68.95;100679.05;125204;1099;104267;-82
2024/02/22 10:11:37;;;;;;;28.90;14.67;;;;;;;11.64;68.76;100673.08;125216;1099;104281;-81
2024/02/22 10:14:08;;;;;;;27.50;14.10;;;;;;;11.65;69.28;100662.62;126016;1099;104220;-79
2024/02/22 10:16:45;;;;;;;27.20;14.77;;;;;;;11.71;69.59;100659.31;125214;1099;104297;-78
2024/02/22 10:19:29;;;;;;;30.93;15.60;;;;;;;11.77;69.59;100659.52;125379;1099;104428;-79
2024/02/22 10:22:04;;;;;;;28.80;15.03;;;;;;;11.84;68.39;100655.35;125967;1099;104389;-82
2024/02/22 10:24:37;;;;;;;28.63;14.70;;;;;;;11.91;66.81;100643.32;125928;1099;103179;-79
2024/02/22 10:27:11;;;;;;;27.93;14.83;;;;;;;11.90;68.51;100652.04;125429;1099;104172;-79
2024/02/22 10:29:44;;;;;;;29.70;14.37;;;;;;;11.94;67.01;100630.31;125178;1099;104782;-78
2024/02/22 10:32:20;;;;;;;27.07;14.40;;;;;;;11.96;67.73;100647.90;125481;1099;103965;-79
2024/02/22 10:34:54;;;;;;;31.40;15.73;;;;;;;12.02;68.02;100644.59;125480;1099;104150;-80
2024/02/22 10:37:26;;;;;;;27.70;14.47;;;;;;;12.07;67.56;100637.73;126845;1099;102006;-80
2024/02/22 10:39:59;;;;;;;29.10;15.80;;;;;;;12.13;67.22;100643.19;126881;1098;111952;-78
2024/02/22 10:42:33;;;;;;;30.40;14.65;;;;;;;12.18;67.28;100631.05;118317;1098;10000978;-79
2024/02/22 10:45:07;;;;;;;27.35;15.75;;;;;;;12.22;66.62;100632.95;126215;1099;102743;-79
2024/02/22 10:47:40;;;;;;;27.05;14.40;;;;;;;12.28;66.92;100616.47;126841;1099;102741;-80
2024/02/22 10:50:13;;;;;;;30.73;15.03;;;;;;;12.33;66.49;100619.24;126645;1099;111263;-80
2024/02/22 10:52:47;;;;;;;27.50;14.05;;;;;;;12.37;66.84;100615.84;126935;1099;101724;-80
2024/02/22 10:55:21;;;;;;;30.47;15.30;;;;;;;12.39;63.72;100614.17;126294;1099;104716;-81
2024/02/22 10:57:54;;;;;;;27.30;14.45;;;;;;;12.39;64.81;100601.89;126287;1098;102517;-81
2024/02/22 11:00:40;;;;;;;;;;;;;;;12.41;62.78;100609.83;126418;1099;102606;-81
2024/02/22 11:03:28;;;;;;;28.17;14.73;;;;;;;12.40;63.94;100602.77;118165;1098;10001054;-82
2024/02/22 11:06:03;;;;;;;25.63;14.17;;;;;;;12.41;64.35;100596.67;125143;1099;104163;-82
2024/02/22 11:08:36;;;;;;;28.27;14.87;;;;;;;12.42;64.07;100598.47;125187;1099;104159;-80
2024/02/22 11:11:12;;;;;;;28.93;15.20;;;;;;;12.41;63.21;100594.92;125209;1098;104218;-81
2024/02/22 11:13:56;;;;;;;26.30;13.40;;;;;;;12.42;63.74;100590.58;125147;1099;104187;-82
2024/02/22 11:16:40;;;;;;;26.20;14.30;;;;;;;12.45;62.85;100595.93;125111;1099;104150;-81
2024/02/22 11:19:24;;;;;;;24.87;12.90;;;;;;;12.49;63.17;100589.89;125031;1099;102616;-82
2024/02/22 11:21:56;;;;;;;28.67;14.37;;;;;;;12.52;63.16;100578.57;125329;1099;102727;-81